Time;durP1;ratioP1;P1;durP2;ratioP2;P2;SDS_P1;SDS_P2;PMS_P1;PMS_P2;Temp;Humidity;BMP_temperature;BMP_pressure;BME280_temperature;BME280_humidity;BME280_pressure;Samples;Min_cycle;Max_cycle;Signal;HPM_P1;HPM_P2
2021/08/02 00:00:10;;;;;;;339.75;210.05;;;;;;;;;;4133243;34;20330;-84
2021/08/02 00:02:42;;;;;;;340.75;208.43;;;;;;;;;;4141754;34;20190;-84
2021/08/02 00:05:13;;;;;;;333.60;210.60;;;;;;;;;;4148227;34;20502;-84
2021/08/02 00:07:42;;;;;;;338.87;208.80;;;;;;;;;;4144845;34;20094;-84
2021/08/02 00:10:12;;;;;;;336.67;208.55;;;;;;;;;;4148757;34;20045;-83
2021/08/02 00:12:48;;;;;;;345.20;217.60;;;;;;;;;;4143800;34;20122;-84
2021/08/02 00:15:18;;;;;;;348.25;212.55;;;;;;;;;;4145455;34;20049;-84
2021/08/02 00:17:47;;;;;;;350.25;222.68;;;;;;;;;;4150344;34;20067;-84
2021/08/02 00:20:36;;;;;;;344.90;220.32;;;;;;;;;;4145289;34;20104;-84
2021/08/02 00:23:06;;;;;;;240.12;153.32;;;;;;;;;;4143105;34;20060;-84
2021/08/02 00:25:36;;;;;;;247.10;158.18;;;;;;;;;;4147868;34;20052;-84
2021/08/02 00:28:05;;;;;;;344.33;208.77;;;;;;;;;;4150448;34;20060;-84
2021/08/02 00:30:34;;;;;;;235.95;164.00;;;;;;;;;;4152625;34;20425;-84
2021/08/02 00:33:03;;;;;;;228.90;163.18;;;;;;;;;;4138612;34;20412;-84
2021/08/02 00:35:32;;;;;;;351.08;221.80;;;;;;;;;;4154225;34;20116;-84
2021/08/02 00:38:07;;;;;;;345.95;216.68;;;;;;;;;;4154702;34;20060;-84
2021/08/02 00:40:49;;;;;;;344.90;220.55;;;;;;;;;;4153518;34;20551;-84
2021/08/02 00:43:36;;;;;;;349.33;219.75;;;;;;;;;;4152085;34;20086;-85
2021/08/02 00:46:05;;;;;;;351.45;215.65;;;;;;;;;;4147455;34;20671;-84
2021/08/02 00:48:48;;;;;;;358.63;213.00;;;;;;;;;;4144331;34;20092;-84
2021/08/02 00:51:19;;;;;;;345.48;209.12;;;;;;;;;;4150859;34;20114;-84
2021/08/02 00:53:48;;;;;;;344.98;205.73;;;;;;;;;;4147911;34;20062;-84
2021/08/02 00:56:17;;;;;;;346.52;205.10;;;;;;;;;;4137084;34;20111;-84
2021/08/02 00:58:47;;;;;;;342.50;203.62;;;;;;;;;;4148300;34;20122;-84
2021/08/02 01:01:17;;;;;;;238.25;146.23;;;;;;;;;;4143811;34;20114;-84
2021/08/02 01:03:46;;;;;;;229.57;145.52;;;;;;;;;;4148413;34;20206;-84
2021/08/02 01:06:16;;;;;;;233.18;151.60;;;;;;;;;;4138741;34;20053;-85
2021/08/02 01:08:48;;;;;;;234.12;153.32;;;;;;;;;;4148712;34;20110;-84
2021/08/02 01:11:21;;;;;;;231.45;149.85;;;;;;;;;;4145964;34;20088;-85
2021/08/02 01:13:50;;;;;;;359.62;204.25;;;;;;;;;;4147171;34;20122;-84
2021/08/02 01:16:21;;;;;;;344.50;201.05;;;;;;;;;;4144201;34;20052;-84
2021/08/02 01:18:50;;;;;;;351.83;202.93;;;;;;;;;;4144652;34;20070;-84
2021/08/02 01:21:21;;;;;;;338.00;203.48;;;;;;;;;;4149972;34;20132;-84
2021/08/02 01:23:51;;;;;;;344.05;202.48;;;;;;;;;;4145213;34;20092;-83
2021/08/02 01:26:40;;;;;;;341.48;206.43;;;;;;;;;;4143440;34;20096;-84
2021/08/02 01:29:29;;;;;;;349.35;208.32;;;;;;;;;;4146759;34;20080;-84
2021/08/02 01:31:59;;;;;;;365.52;211.10;;;;;;;;;;4146824;34;20156;-84
2021/08/02 01:34:28;;;;;;;373.87;214.93;;;;;;;;;;4143787;34;20068;-84
2021/08/02 01:36:57;;;;;;;364.35;216.75;;;;;;;;;;4147463;34;20096;-83
2021/08/02 01:39:26;;;;;;;244.05;165.43;;;;;;;;;;4145190;34;20484;-84
2021/08/02 01:41:55;;;;;;;254.38;162.82;;;;;;;;;;4143249;34;20093;-84
2021/08/02 01:44:23;;;;;;;250.02;162.23;;;;;;;;;;4141672;34;20415;-83
2021/08/02 01:47:05;;;;;;;243.50;170.20;;;;;;;;;;4140459;34;20107;-84
2021/08/02 01:49:41;;;;;;;240.98;168.77;;;;;;;;;;4145573;34;20122;-84
2021/08/02 01:52:14;;;;;;;359.05;212.45;;;;;;;;;;4148541;34;20110;-84
2021/08/02 01:54:43;;;;;;;347.50;217.50;;;;;;;;;;4137280;34;20515;-86
2021/08/02 01:57:23;;;;;;;356.50;214.60;;;;;;;;;;4136702;34;20044;-83
2021/08/02 01:59:56;;;;;;;347.77;210.32;;;;;;;;;;4147669;34;20176;-83
2021/08/02 02:02:27;;;;;;;344.70;211.05;;;;;;;;;;4150679;34;20385;-84
2021/08/02 02:05:08;;;;;;;343.90;213.43;;;;;;;;;;4145493;34;20100;-84
2021/08/02 02:07:42;;;;;;;343.75;208.23;;;;;;;;;;4149571;34;20102;-84
2021/08/02 02:10:17;;;;;;;350.70;209.05;;;;;;;;;;4147247;34;20682;-84
2021/08/02 02:12:48;;;;;;;343.70;209.68;;;;;;;;;;4143603;34;20083;-84
2021/08/02 02:15:18;;;;;;;341.38;204.98;;;;;;;;;;4146266;34;20811;-84
2021/08/02 02:17:48;;;;;;;237.82;171.85;;;;;;;;;;4149111;34;20056;-84
2021/08/02 02:20:20;;;;;;;242.60;176.30;;;;;;;;;;4147326;34;20541;-85
2021/08/02 02:22:49;;;;;;;243.60;173.93;;;;;;;;;;4136295;34;20168;-84
2021/08/02 02:25:19;;;;;;;248.60;177.43;;;;;;;;;;4147847;34;20083;-82
2021/08/02 02:27:48;;;;;;;245.57;177.62;;;;;;;;;;4150458;34;20525;-84
2021/08/02 02:30:17;;;;;;;248.68;176.07;;;;;;;;;;4145821;34;20727;-84
2021/08/02 02:32:45;;;;;;;256.25;186.60;;;;;;;;;;4147051;34;20165;-84
2021/08/02 02:35:14;;;;;;;250.15;179.43;;;;;;;;;;4146621;34;20081;-85
2021/08/02 02:37:44;;;;;;;262.33;191.45;;;;;;;;;;4147725;34;20075;-83
2021/08/02 02:40:13;;;;;;;257.17;191.85;;;;;;;;;;4149497;34;20056;-84
2021/08/02 02:42:42;;;;;;;256.87;196.87;;;;;;;;;;4145343;34;20251;-84
2021/08/02 02:45:12;;;;;;;248.98;186.57;;;;;;;;;;4151445;34;20053;-84
2021/08/02 02:47:42;;;;;;;262.20;191.20;;;;;;;;;;4149712;34;20044;-84
2021/08/02 02:50:12;;;;;;;258.55;189.43;;;;;;;;;;4153176;34;20095;-84
2021/08/02 02:52:42;;;;;;;243.48;170.50;;;;;;;;;;4150250;34;20052;-84
2021/08/02 02:55:12;;;;;;;246.68;175.38;;;;;;;;;;4151756;34;20433;-84
2021/08/02 02:57:41;;;;;;;241.50;174.95;;;;;;;;;;4141008;34;20074;-84
2021/08/02 03:00:11;;;;;;;237.50;173.05;;;;;;;;;;4147014;34;20191;-84
2021/08/02 03:02:41;;;;;;;237.48;184.93;;;;;;;;;;4147741;34;20380;-84
2021/08/02 03:05:11;;;;;;;220.50;145.87;;;;;;;;;;4143929;34;20508;-84
2021/08/02 03:07:41;;;;;;;323.50;208.80;;;;;;;;;;4152161;34;20627;-84
2021/08/02 07:49:07;;;;;;;302.48;234.27;;;;;;;;;;4148609;34;20629;-84
2021/08/02 07:51:35;;;;;;;263.00;212.70;;;;;;;;;;4150680;34;20048;-84
2021/08/02 07:54:04;;;;;;;235.02;200.27;;;;;;;;;;4148478;34;20117;-84
2021/08/02 07:56:33;;;;;;;241.43;199.70;;;;;;;;;;4146663;34;20257;-84
2021/08/02 07:59:02;;;;;;;234.87;195.38;;;;;;;;;;4147294;34;20278;-84
2021/08/02 08:01:31;;;;;;;233.93;199.48;;;;;;;;;;4149293;34;20085;-83
2021/08/02 08:04:00;;;;;;;181.98;163.65;;;;;;;;;;4147984;34;20435;-84
2021/08/02 08:06:29;;;;;;;191.15;171.95;;;;;;;;;;4144987;34;20090;-84
2021/08/02 08:08:57;;;;;;;193.75;175.32;;;;;;;;;;4135641;34;20049;-85
2021/08/02 08:11:26;;;;;;;187.62;168.90;;;;;;;;;;4144887;34;21216;-84
2021/08/02 08:13:55;;;;;;;195.12;177.48;;;;;;;;;;4145537;34;20748;-84
2021/08/02 08:16:23;;;;;;;225.13;202.60;;;;;;;;;;4145997;34;20111;-84
2021/08/02 08:18:55;;;;;;;228.73;182.20;;;;;;;;;;4143256;34;20357;-83
2021/08/02 08:21:23;;;;;;;202.77;169.75;;;;;;;;;;4148674;34;20430;-84
2021/08/02 08:23:52;;;;;;;212.57;174.43;;;;;;;;;;4145297;34;20060;-83
2021/08/02 08:26:21;;;;;;;202.95;171.02;;;;;;;;;;4144301;34;20169;-84
2021/08/02 08:28:49;;;;;;;216.88;191.82;;;;;;;;;;4133609;34;20411;-85
2021/08/02 08:31:18;;;;;;;167.02;150.05;;;;;;;;;;4147547;34;20439;-84
2021/08/02 08:33:49;;;;;;;150.43;135.55;;;;;;;;;;4143816;34;20091;-84
2021/08/02 08:36:18;;;;;;;136.00;123.13;;;;;;;;;;4148751;34;20449;-83
2021/08/02 08:38:46;;;;;;;99.85;90.40;;;;;;;;;;4146596;34;20061;-84
2021/08/02 08:41:24;;;;;;;56.28;50.70;;;;;;;;;;4147213;34;20088;-84
2021/08/02 08:43:53;;;;;;;15.43;7.30;;;;;;;;;;4146169;34;20078;-85
2021/08/02 08:46:23;;;;;;;9.13;2.70;;;;;;;;;;4144346;34;20108;-85
2021/08/02 08:48:52;;;;;;;7.35;2.40;;;;;;;;;;4145897;34;20089;-84
2021/08/02 08:51:24;;;;;;;12.57;2.58;;;;;;;;;;4149074;34;20134;-84
2021/08/02 08:53:53;;;;;;;6.90;2.33;;;;;;;;;;4145220;34;20111;-84
2021/08/02 08:56:21;;;;;;;10.70;2.80;;;;;;;;;;4147063;34;20071;-84
2021/08/02 08:58:50;;;;;;;12.77;2.92;;;;;;;;;;4145738;34;20349;-84
2021/08/02 09:01:26;;;;;;;9.82;2.47;;;;;;;;;;4140084;34;20574;-84
2021/08/02 09:03:56;;;;;;;9.48;2.45;;;;;;;;;;4148464;34;20083;-84
2021/08/02 09:06:24;;;;;;;11.82;2.90;;;;;;;;;;4151475;34;20064;-84
2021/08/02 09:08:53;;;;;;;10.07;3.40;;;;;;;;;;4148402;34;20044;-84
2021/08/02 09:11:27;;;;;;;14.65;7.28;;;;;;;;;;4147123;34;20083;-84
2021/08/02 09:14:08;;;;;;;14.50;10.90;;;;;;;;;;4148376;34;20611;-84
2021/08/02 09:16:37;;;;;;;15.38;4.75;;;;;;;;;;4146184;34;20044;-84
2021/08/02 09:19:12;;;;;;;13.15;3.75;;;;;;;;;;4149898;34;20067;-84
2021/08/02 09:21:41;;;;;;;12.68;3.67;;;;;;;;;;4150633;34;20052;-84
2021/08/02 09:24:10;;;;;;;9.95;2.87;;;;;;;;;;4135252;34;20048;-85
2021/08/02 09:26:40;;;;;;;8.93;2.83;;;;;;;;;;4150069;34;20119;-84
2021/08/02 09:29:09;;;;;;;9.35;3.00;;;;;;;;;;4148877;34;20104;-85
2021/08/02 09:31:46;;;;;;;9.60;3.33;;;;;;;;;;4148251;34;20145;-84
2021/08/02 09:34:16;;;;;;;8.57;3.10;;;;;;;;;;4143823;34;20074;-84
2021/08/02 09:36:57;;;;;;;9.25;2.90;;;;;;;;;;4146618;34;20190;-84
2021/08/02 09:39:30;;;;;;;10.50;3.00;;;;;;;;;;4148383;34;20496;-85
2021/08/02 09:42:02;;;;;;;5.32;2.67;;;;;;;;;;4146896;34;20082;-85
2021/08/02 09:44:31;;;;;;;7.10;2.62;;;;;;;;;;4149569;34;20071;-84
2021/08/02 09:47:01;;;;;;;4.82;2.53;;;;;;;;;;4146242;34;20086;-85
2021/08/02 09:49:44;;;;;;;9.00;2.42;;;;;;;;;;4146885;34;20163;-85
2021/08/02 09:52:14;;;;;;;9.30;2.87;;;;;;;;;;4146993;34;20180;-85
2021/08/02 09:54:42;;;;;;;6.87;2.55;;;;;;;;;;4145971;34;20225;-84
2021/08/02 09:57:12;;;;;;;7.10;2.05;;;;;;;;;;4148361;34;20113;-84
2021/08/02 09:59:42;;;;;;;10.68;3.60;;;;;;;;;;4146345;34;20092;-84
2021/08/02 10:02:11;;;;;;;4.50;1.95;;;;;;;;;;4147935;34;20107;-84
2021/08/02 10:04:42;;;;;;;10.38;2.67;;;;;;;;;;4146355;34;20143;-84
2021/08/02 10:07:13;;;;;;;12.05;3.10;;;;;;;;;;4146783;34;20052;-84
2021/08/02 10:09:42;;;;;;;10.98;2.83;;;;;;;;;;4145625;34;20125;-84
2021/08/02 10:12:12;;;;;;;8.80;2.60;;;;;;;;;;4148094;34;20118;-84
2021/08/02 10:14:40;;;;;;;6.97;2.50;;;;;;;;;;4146735;34;20550;-84
2021/08/02 10:17:10;;;;;;;6.43;3.08;;;;;;;;;;4147821;34;20391;-85
2021/08/02 10:19:40;;;;;;;7.55;2.12;;;;;;;;;;4135721;34;20445;-84
2021/08/02 10:22:10;;;;;;;9.60;2.60;;;;;;;;;;4146548;34;20496;-84
2021/08/02 10:24:49;;;;;;;7.80;2.60;;;;;;;;;;4143993;34;20161;-85
2021/08/02 10:27:26;;;;;;;7.97;2.53;;;;;;;;;;4147078;34;20056;-84
2021/08/02 10:30:21;;;;;;;7.25;2.75;;;;;;;;;;4147471;34;20096;-84
2021/08/02 10:32:57;;;;;;;10.90;2.83;;;;;;;;;;4151734;34;20066;-84
2021/08/02 10:35:32;;;;;;;9.32;2.40;;;;;;;;;;4152770;34;20498;-84
2021/08/02 10:38:13;;;;;;;11.18;2.80;;;;;;;;;;4153866;34;20083;-84
2021/08/02 10:40:46;;;;;;;7.30;2.10;;;;;;;;;;4146982;34;20044;-84
2021/08/02 10:43:28;;;;;;;10.93;2.78;;;;;;;;;;4155443;34;20052;-84
2021/08/02 10:45:57;;;;;;;10.40;2.62;;;;;;;;;;4152599;34;20455;-84
2021/08/02 10:48:30;;;;;;;6.62;2.08;;;;;;;;;;4149004;34;20116;-85
2021/08/02 10:51:09;;;;;;;7.05;2.30;;;;;;;;;;4155252;34;20060;-84
2021/08/02 10:53:38;;;;;;;8.13;2.53;;;;;;;;;;4155765;34;20048;-85
2021/08/02 10:56:07;;;;;;;7.25;2.33;;;;;;;;;;4164959;34;20115;-84
2021/08/02 10:58:39;;;;;;;5.97;1.92;;;;;;;;;;4163674;34;20056;-84
2021/08/02 11:01:13;;;;;;;4.55;2.20;;;;;;;;;;4156434;34;20040;-85
2021/08/02 11:03:42;;;;;;;6.77;1.93;;;;;;;;;;4152756;34;20113;-84
2021/08/02 11:06:31;;;;;;;7.65;2.45;;;;;;;;;;4154743;34;20204;-85
2021/08/02 11:09:00;;;;;;;8.05;2.65;;;;;;;;;;4154441;34;20399;-84
2021/08/02 11:11:44;;;;;;;9.57;3.05;;;;;;;;;;4158711;34;20511;-84
2021/08/02 11:14:17;;;;;;;8.98;2.60;;;;;;;;;;4154504;34;20120;-84
2021/08/02 11:16:49;;;;;;;5.07;2.10;;;;;;;;;;4156230;34;20060;-84
2021/08/02 11:19:28;;;;;;;6.18;2.25;;;;;;;;;;4153497;34;20424;-85
2021/08/02 11:22:02;;;;;;;5.25;1.80;;;;;;;;;;4154851;34;20091;-84
2021/08/02 11:24:35;;;;;;;4.75;1.83;;;;;;;;;;4153578;34;20041;-84
2021/08/02 11:27:06;;;;;;;8.48;2.20;;;;;;;;;;4156490;34;20079;-84
2021/08/02 11:29:36;;;;;;;6.82;2.08;;;;;;;;;;4153601;34;20467;-84
2021/08/02 11:32:06;;;;;;;4.97;2.10;;;;;;;;;;4155675;34;20513;-84
2021/08/02 11:34:35;;;;;;;9.48;2.47;;;;;;;;;;4153282;34;20351;-84
2021/08/02 11:37:07;;;;;;;8.82;2.35;;;;;;;;;;4155439;34;20140;-84
2021/08/02 11:39:37;;;;;;;9.30;2.67;;;;;;;;;;4154008;34;20048;-84
2021/08/02 11:42:07;;;;;;;8.00;2.50;;;;;;;;;;4151070;34;20052;-84
2021/08/02 11:44:41;;;;;;;7.87;2.30;;;;;;;;;;4153032;34;20172;-84
2021/08/02 11:47:16;;;;;;;7.43;2.28;;;;;;;;;;4146459;34;20422;-84
2021/08/02 11:49:45;;;;;;;11.98;2.67;;;;;;;;;;4152525;34;20084;-84
2021/08/02 11:52:18;;;;;;;8.93;2.50;;;;;;;;;;4155160;34;20120;-84
2021/08/02 11:54:57;;;;;;;6.93;2.28;;;;;;;;;;4153325;34;20056;-84
2021/08/02 11:57:26;;;;;;;4.85;2.22;;;;;;;;;;4155794;34;20091;-84
2021/08/02 12:00:02;;;;;;;7.60;2.15;;;;;;;;;;4151645;34;20498;-84
2021/08/02 12:02:43;;;;;;;6.10;2.20;;;;;;;;;;4159260;34;20083;-85
2021/08/02 12:05:19;;;;;;;6.35;2.55;;;;;;;;;;4154006;34;20049;-84
2021/08/02 12:08:15;;;;;;;10.85;2.62;;;;;;;;;;4160754;34;20431;-84
2021/08/02 12:10:59;;;;;;;7.72;2.33;;;;;;;;;;4154202;34;20056;-84
2021/08/02 12:13:40;;;;;;;7.68;2.70;;;;;;;;;;4152705;34;20462;-84
2021/08/02 12:16:10;;;;;;;6.87;2.70;;;;;;;;;;4153108;34;20040;-85
2021/08/02 12:18:40;;;;;;;6.95;2.40;;;;;;;;;;4154783;34;20553;-84
2021/08/02 12:21:11;;;;;;;11.23;2.92;;;;;;;;;;4155463;34;20104;-84
2021/08/02 12:23:40;;;;;;;8.38;3.00;;;;;;;;;;4157659;34;20104;-84
2021/08/02 12:26:19;;;;;;;10.43;3.22;;;;;;;;;;4154897;34;20052;-85
2021/08/02 12:28:49;;;;;;;10.25;2.67;;;;;;;;;;4152930;34;20122;-84
2021/08/02 12:31:23;;;;;;;7.47;2.45;;;;;;;;;;4142096;34;20107;-84
2021/08/02 12:33:52;;;;;;;6.90;2.50;;;;;;;;;;4152812;34;20052;-85
2021/08/02 12:36:22;;;;;;;7.05;2.17;;;;;;;;;;4153488;34;20068;-85
2021/08/02 12:38:52;;;;;;;5.70;2.10;;;;;;;;;;4154533;34;20406;-85
2021/08/02 12:41:21;;;;;;;7.70;2.50;;;;;;;;;;4152369;34;20123;-85
2021/08/02 12:43:53;;;;;;;7.35;2.35;;;;;;;;;;4149978;34;20060;-85
2021/08/02 12:46:21;;;;;;;5.57;2.47;;;;;;;;;;4150133;34;20065;-85
2021/08/02 12:48:54;;;;;;;6.80;2.08;;;;;;;;;;4145062;34;20079;-85
2021/08/02 12:51:23;;;;;;;10.75;2.25;;;;;;;;;;4153448;34;20083;-85
2021/08/02 12:53:52;;;;;;;8.27;1.83;;;;;;;;;;4151576;34;20427;-84
2021/08/02 12:56:21;;;;;;;4.90;2.10;;;;;;;;;;4152979;34;20091;-85
2021/08/02 12:58:50;;;;;;;6.55;2.20;;;;;;;;;;4150920;34;20110;-84
2021/08/02 13:01:19;;;;;;;4.57;2.08;;;;;;;;;;4153374;34;20534;-85
2021/08/02 13:03:51;;;;;;;5.85;2.10;;;;;;;;;;4153117;34;20437;-85
2021/08/02 13:06:21;;;;;;;7.82;2.17;;;;;;;;;;4153871;34;20060;-84
2021/08/02 13:08:50;;;;;;;4.43;1.70;;;;;;;;;;4153346;34;20045;-85
2021/08/02 13:11:19;;;;;;;5.43;1.70;;;;;;;;;;4149852;34;20149;-84
2021/08/02 13:13:48;;;;;;;3.10;1.42;;;;;;;;;;4147524;34;20064;-83
2021/08/02 13:16:16;;;;;;;21.83;2.80;;;;;;;;;;4149688;34;20044;-84
2021/08/02 13:18:48;;;;;;;5.45;2.10;;;;;;;;;;4149463;34;20104;-84
2021/08/02 13:21:17;;;;;;;5.70;1.98;;;;;;;;;;4150140;34;20496;-84
2021/08/02 13:29:23;;;;;;;5.50;1.90;;;;;;;;;;4145492;34;20106;-84
2021/08/02 13:31:53;;;;;;;4.85;1.35;;;;;;;;;;4149914;34;20225;-84
2021/08/02 13:34:22;;;;;;;2.85;1.30;;;;;;;;;;4151983;34;20388;-84
2021/08/02 13:36:51;;;;;;;11.52;1.30;;;;;;;;;;4152751;34;20048;-84
2021/08/02 13:39:19;;;;;;;2.58;1.20;;;;;;;;;;4150178;34;20440;-84
2021/08/02 13:41:48;;;;;;;5.57;1.60;;;;;;;;;;4154022;34;20052;-84
2021/08/02 13:44:17;;;;;;;5.85;1.42;;;;;;;;;;4151897;34;20052;-85
2021/08/02 13:46:46;;;;;;;5.07;1.83;;;;;;;;;;4150229;34;20068;-84
2021/08/02 13:49:15;;;;;;;3.95;1.40;;;;;;;;;;4152008;34;20052;-84
2021/08/02 13:51:44;;;;;;;3.50;1.20;;;;;;;;;;4150229;34;20357;-85
2021/08/02 13:54:13;;;;;;;3.75;1.37;;;;;;;;;;4153968;34;20083;-84
2021/08/02 13:56:41;;;;;;;5.30;1.80;;;;;;;;;;4151172;34;20048;-84
2021/08/02 13:59:30;;;;;;;5.22;1.52;;;;;;;;;;4152171;34;20049;-84
2021/08/02 14:01:59;;;;;;;4.25;1.95;;;;;;;;;;4139788;34;20149;-85
2021/08/02 14:04:28;;;;;;;7.68;1.60;;;;;;;;;;4150076;34;20053;-84
2021/08/02 14:06:56;;;;;;;10.65;1.85;;;;;;;;;;4149806;34;20092;-84
2021/08/02 14:09:24;;;;;;;3.65;1.40;;;;;;;;;;4150432;34;20091;-84
2021/08/02 14:11:59;;;;;;;10.18;1.90;;;;;;;;;;4148927;34;20118;-85
2021/08/02 14:14:33;;;;;;;6.62;1.67;;;;;;;;;;4148640;34;20618;-85
2021/08/02 14:17:07;;;;;;;4.65;1.52;;;;;;;;;;4148761;34;20045;-84
2021/08/02 14:19:38;;;;;;;5.55;1.33;;;;;;;;;;4151359;34;20087;-85
2021/08/02 14:22:07;;;;;;;7.30;1.60;;;;;;;;;;4149872;34;20461;-84
2021/08/02 14:24:36;;;;;;;3.75;1.35;;;;;;;;;;4148342;34;20113;-84
2021/08/02 14:27:04;;;;;;;7.53;1.58;;;;;;;;;;4147079;34;20114;-84
2021/08/02 14:29:33;;;;;;;7.50;2.05;;;;;;;;;;4151131;34;20068;-84
2021/08/02 14:32:01;;;;;;;3.87;1.33;;;;;;;;;;4148124;34;20158;-85
2021/08/02 14:34:30;;;;;;;5.03;1.85;;;;;;;;;;4150388;34;20115;-84
2021/08/02 14:37:00;;;;;;;4.22;1.58;;;;;;;;;;4145502;34;20366;-84
2021/08/02 14:39:30;;;;;;;4.43;1.42;;;;;;;;;;4146133;34;20061;-84
2021/08/02 14:42:03;;;;;;;6.05;1.73;;;;;;;;;;4150981;34;20476;-84
2021/08/02 14:44:41;;;;;;;15.13;2.33;;;;;;;;;;4145985;34;20358;-84
2021/08/02 14:47:11;;;;;;;6.35;1.50;;;;;;;;;;4143574;34;20178;-84
2021/08/02 14:49:47;;;;;;;6.07;1.50;;;;;;;;;;4149694;34;20127;-84
2021/08/02 14:52:17;;;;;;;8.30;1.65;;;;;;;;;;4150510;34;20380;-84
2021/08/02 14:54:46;;;;;;;4.78;1.33;;;;;;;;;;4143461;34;20175;-84
2021/08/02 14:57:16;;;;;;;6.50;1.52;;;;;;;;;;4151637;34;20438;-84
2021/08/02 14:59:45;;;;;;;4.62;1.30;;;;;;;;;;4147136;34;20149;-84
2021/08/02 15:02:15;;;;;;;6.45;1.35;;;;;;;;;;4143590;34;20147;-83
2021/08/02 15:04:44;;;;;;;5.97;1.75;;;;;;;;;;4148924;34;20109;-84
2021/08/02 15:07:13;;;;;;;6.68;1.70;;;;;;;;;;4148360;34;20074;-84
2021/08/02 15:09:43;;;;;;;3.58;1.35;;;;;;;;;;4151119;34;20091;-84
2021/08/02 15:12:12;;;;;;;5.57;1.45;;;;;;;;;;4137427;34;20575;-84
2021/08/02 15:14:41;;;;;;;5.62;1.67;;;;;;;;;;4140531;34;20082;-85
2021/08/02 15:17:10;;;;;;;20.62;2.55;;;;;;;;;;4144536;34;20101;-84
2021/08/02 15:19:39;;;;;;;6.53;1.30;;;;;;;;;;4141115;34;20170;-86
2021/08/02 15:22:12;;;;;;;6.47;1.73;;;;;;;;;;4147554;34;20429;-85
2021/08/02 15:24:46;;;;;;;5.25;1.40;;;;;;;;;;4146037;34;20449;-85
2021/08/02 15:27:20;;;;;;;6.57;1.75;;;;;;;;;;4146830;34;20721;-85
2021/08/02 15:30:08;;;;;;;5.70;1.30;;;;;;;;;;4143718;34;20053;-84
2021/08/02 15:32:41;;;;;;;4.05;1.30;;;;;;;;;;4149371;34;20199;-84
2021/08/02 15:35:13;;;;;;;5.35;1.50;;;;;;;;;;4145332;34;20095;-84
2021/08/02 15:37:42;;;;;;;5.15;1.27;;;;;;;;;;4147494;34;20523;-84
2021/08/02 15:40:13;;;;;;;4.03;1.20;;;;;;;;;;4146353;34;20101;-86
2021/08/02 15:42:43;;;;;;;3.97;1.10;;;;;;;;;;4147748;34;21932;-86
2021/08/02 15:45:14;;;;;;;5.57;1.50;;;;;;;;;;4143269;34;20441;-85
2021/08/02 15:47:44;;;;;;;6.25;1.62;;;;;;;;;;4144000;34;20112;-85
2021/08/02 15:50:14;;;;;;;6.57;1.52;;;;;;;;;;4146461;34;20086;-85
2021/08/02 15:53:02;;;;;;;5.45;0.98;;;;;;;;;;4145351;34;20074;-85
2021/08/02 15:55:36;;;;;;;4.70;1.30;;;;;;;;;;4147548;34;20347;-85
2021/08/02 15:58:09;;;;;;;5.05;1.05;;;;;;;;;;4145880;34;20045;-86
2021/08/02 16:00:40;;;;;;;4.90;1.37;;;;;;;;;;4142910;34;20053;-84
2021/08/02 16:03:22;;;;;;;5.03;1.42;;;;;;;;;;4144990;34;20510;-85
2021/08/02 16:05:58;;;;;;;9.40;1.70;;;;;;;;;;4146658;34;20040;-86
2021/08/02 16:08:54;;;;;;;6.28;1.52;;;;;;;;;;4146625;34;20133;-86
2021/08/02 16:11:26;;;;;;;3.97;1.30;;;;;;;;;;4143826;34;20086;-85
2021/08/02 16:13:55;;;;;;;7.72;1.58;;;;;;;;;;4145544;34;20101;-86
2021/08/02 16:16:25;;;;;;;3.35;1.33;;;;;;;;;;4144015;34;20116;-85
2021/08/02 16:18:53;;;;;;;21.58;3.00;;;;;;;;;;4146253;34;20479;-85
2021/08/02 16:21:22;;;;;;;6.60;1.60;;;;;;;;;;4134961;34;20188;-86
2021/08/02 16:23:51;;;;;;;9.55;1.70;;;;;;;;;;4143566;34;20108;-86
2021/08/02 16:26:19;;;;;;;6.32;2.17;;;;;;;;;;4144460;34;20703;-85
2021/08/02 16:28:48;;;;;;;6.37;2.67;;;;;;;;;;4141888;34;20060;-85
2021/08/02 16:31:17;;;;;;;8.82;2.30;;;;;;;;;;4145359;34;20090;-85
2021/08/02 16:33:45;;;;;;;6.30;1.75;;;;;;;;;;4144535;34;20117;-85
2021/08/02 16:36:14;;;;;;;6.47;2.15;;;;;;;;;;4145841;34;20065;-85
2021/08/02 16:38:42;;;;;;;9.00;2.53;;;;;;;;;;4144765;34;20052;-85
2021/08/02 16:41:11;;;;;;;3.85;1.10;;;;;;;;;;4141493;34;20138;-85
2021/08/02 16:43:39;;;;;;;6.03;2.50;;;;;;;;;;4134602;34;20175;-85
2021/08/02 16:46:08;;;;;;;9.48;3.08;;;;;;;;;;4140653;34;20515;-86
2021/08/02 16:48:36;;;;;;;5.53;1.85;;;;;;;;;;4141886;34;20075;-85
2021/08/02 16:51:08;;;;;;;7.55;4.07;;;;;;;;;;4146568;34;20635;-85
2021/08/02 16:53:36;;;;;;;8.70;4.65;;;;;;;;;;4133817;34;20720;-85
2021/08/02 16:56:05;;;;;;;9.10;2.85;;;;;;;;;;4146862;34;20462;-85
2021/08/02 16:58:33;;;;;;;4.90;1.50;;;;;;;;;;4143649;34;20157;-85
2021/08/02 17:01:02;;;;;;;8.25;2.65;;;;;;;;;;4131891;34;20487;-85
2021/08/02 17:03:31;;;;;;;5.57;2.40;;;;;;;;;;4142488;34;20387;-86
2021/08/02 17:06:00;;;;;;;8.98;4.35;;;;;;;;;;4139778;34;20658;-86
2021/08/02 17:08:28;;;;;;;5.70;3.15;;;;;;;;;;4144735;34;21809;-86
2021/08/02 17:10:57;;;;;;;6.00;1.30;;;;;;;;;;4142506;34;20520;-86
2021/08/02 17:13:26;;;;;;;4.50;2.05;;;;;;;;;;4140774;34;20079;-85
2021/08/02 17:15:54;;;;;;;9.88;3.17;;;;;;;;;;4144326;34;20100;-86
2021/08/02 17:18:23;;;;;;;5.93;2.70;;;;;;;;;;4147869;34;20088;-86
2021/08/02 17:20:53;;;;;;;6.07;1.77;;;;;;;;;;4139987;34;20167;-85
2021/08/02 17:23:22;;;;;;;5.68;1.37;;;;;;;;;;4141821;34;20048;-85
2021/08/02 17:25:52;;;;;;;6.00;2.22;;;;;;;;;;4143938;34;20075;-85
2021/08/02 17:28:25;;;;;;;6.35;4.00;;;;;;;;;;4146938;34;20999;-86
2021/08/02 17:30:54;;;;;;;2.80;1.20;;;;;;;;;;4148066;34;20136;-85
2021/08/02 17:33:23;;;;;;;6.50;2.33;;;;;;;;;;4146000;34;20080;-85
2021/08/02 17:35:52;;;;;;;8.77;8.00;;;;;;;;;;4144955;34;20135;-85
2021/08/02 17:38:21;;;;;;;7.22;5.50;;;;;;;;;;4146952;34;20160;-85
2021/08/02 17:40:49;;;;;;;12.13;11.18;;;;;;;;;;4158108;34;20056;-85
2021/08/02 17:43:18;;;;;;;18.20;16.95;;;;;;;;;;4132687;34;20124;-84
2021/08/02 17:45:47;;;;;;;7.12;5.78;;;;;;;;;;4140487;34;20439;-83
2021/08/02 17:48:16;;;;;;;50.10;47.25;;;;;;;;;;4140619;34;20090;-85
2021/08/02 17:50:45;;;;;;;26.30;24.60;;;;;;;;;;4148237;34;20075;-85
2021/08/02 17:53:14;;;;;;;47.03;44.58;;;;;;;;;;4146703;34;20359;-85
2021/08/02 17:55:42;;;;;;;90.30;85.90;;;;;;;;;;4146372;34;20139;-84
2021/08/02 17:58:13;;;;;;;71.50;68.03;;;;;;;;;;4146891;34;20074;-85
2021/08/02 18:00:42;;;;;;;92.43;88.22;;;;;;;;;;4146300;34;20357;-84
2021/08/02 18:03:12;;;;;;;62.08;58.83;;;;;;;;;;4141130;34;20535;-84
2021/08/02 18:05:41;;;;;;;53.03;50.15;;;;;;;;;;4147554;34;20247;-84
2021/08/02 18:08:09;;;;;;;126.72;120.95;;;;;;;;;;4140731;34;20131;-85
2021/08/02 18:10:42;;;;;;;61.50;57.80;;;;;;;;;;4144174;34;20075;-85
2021/08/02 18:13:10;;;;;;;117.43;110.15;;;;;;;;;;4141938;34;20044;-84
2021/08/02 18:15:39;;;;;;;127.45;119.35;;;;;;;;;;4150956;34;20076;-85
2021/08/02 18:18:08;;;;;;;173.60;162.60;;;;;;;;;;4148313;34;20135;-84
2021/08/02 18:20:38;;;;;;;139.70;130.70;;;;;;;;;;4143584;34;20060;-86
2021/08/02 18:23:07;;;;;;;92.95;86.05;;;;;;;;;;4146222;34;20056;-85
2021/08/02 18:25:37;;;;;;;77.70;72.28;;;;;;;;;;4148485;34;20077;-85
2021/08/02 18:28:07;;;;;;;64.47;58.75;;;;;;;;;;4149773;34;20071;-84
2021/08/02 18:30:36;;;;;;;81.35;73.80;;;;;;;;;;4150810;34;20518;-85
2021/08/02 18:33:04;;;;;;;67.15;60.80;;;;;;;;;;4147907;34;20396;-86
2021/08/02 18:35:33;;;;;;;57.10;51.85;;;;;;;;;;4147678;34;20083;-84
2021/08/02 18:38:01;;;;;;;79.85;72.57;;;;;;;;;;4144342;34;20364;-85
2021/08/02 18:40:30;;;;;;;102.25;91.87;;;;;;;;;;4144094;34;20052;-85
2021/08/02 18:42:58;;;;;;;123.85;111.05;;;;;;;;;;4129849;34;20087;-85
2021/08/02 18:45:28;;;;;;;117.78;104.97;;;;;;;;;;4145189;34;20530;-85
2021/08/02 18:47:57;;;;;;;142.52;120.72;;;;;;;;;;4132498;34;20130;-85
2021/08/02 18:50:25;;;;;;;131.95;115.15;;;;;;;;;;4149927;34;20064;-84
2021/08/02 18:52:55;;;;;;;123.93;104.80;;;;;;;;;;4141821;34;20115;-85
2021/08/02 18:55:23;;;;;;;100.90;90.93;;;;;;;;;;4140093;34;20376;-84
2021/08/02 18:57:52;;;;;;;111.82;100.97;;;;;;;;;;4149996;34;20045;-85
2021/08/02 19:00:20;;;;;;;128.82;116.15;;;;;;;;;;4129632;34;20176;-85
2021/08/02 19:02:50;;;;;;;135.23;121.57;;;;;;;;;;4145009;34;20119;-85
2021/08/02 19:05:19;;;;;;;137.55;123.28;;;;;;;;;;4145228;34;20060;-84
2021/08/02 19:07:48;;;;;;;198.43;122.57;;;;;;;;;;4145342;34;20088;-85
2021/08/02 19:10:18;;;;;;;260.40;135.82;;;;;;;;;;4145882;34;20072;-84
2021/08/02 19:13:06;;;;;;;272.58;139.40;;;;;;;;;;4140915;34;20131;-84
2021/08/02 19:15:36;;;;;;;292.77;159.98;;;;;;;;;;4141257;34;20444;-84
2021/08/02 19:18:08;;;;;;;271.25;157.27;;;;;;;;;;4143755;34;20086;-84
2021/08/02 19:20:39;;;;;;;263.05;150.35;;;;;;;;;;4143871;34;20115;-85
2021/08/02 19:23:13;;;;;;;192.98;121.85;;;;;;;;;;4141852;34;20091;-85
2021/08/02 19:25:42;;;;;;;441.67;251.57;;;;;;;;;;4144284;34;20160;-84
2021/08/02 19:28:19;;;;;;;448.17;288.00;;;;;;;;;;4119458;34;20169;-85
2021/08/02 19:30:49;;;;;;;186.27;145.45;;;;;;;;;;4128324;34;20603;-84